^^
Station Historical Data
Daily Summary for June 14, 2018 Units:  Metric    English   Both
« Previous Day
Next Day »
Daily Weekly Monthly Yearly Custom
  High: Low: Average:
Temperature: 28.6 °C 9.8 °C 19.2 °C
Dew Point: 14.1 °C 9.5 °C 11 °C
Humidity: 98% 35% 64%
Wind Speed: 14.3km/h 0km/h 2.3km/h
Wind Gust: 6.4km/h - -
Wind- - SSE
Pressure: 1020.5 hPa 1015.8 hPa -
Precipitation: 0 mm    
Historical Graphs
 
 
Tabular Data for June 14, 2018
Time Temperature Dew Point Pressure Wind Wind Speed Wind Gust Humidity Rainfall Rate (Hourly) solar Conditions
00:04 11.4 °C 10.3 °C 1015.8 hPa Calm     93% 0 mm 0.00 W/m2 RA
00:09 11.4 °C 10.6 °C 1015.8 hPa Calm     95% 0 mm 0.00 W/m2 RA
00:14 11.4 °C 10.6 °C 1015.8 hPa Calm     95% 0 mm 0.00 W/m2 CLR
00:19 11.2 °C 10.4 °C 1015.8 hPa Calm     95% 0 mm 0.00 W/m2 CLR
00:24 11.2 °C 10.4 °C 1015.8 hPa Calm     95% 0 mm 0.00 W/m2 CLR
00:29 11.2 °C 10.4 °C 1015.8 hPa Calm     95% 0 mm 0.00 W/m2 CLR
00:34 11.2 °C 10.4 °C 1015.8 hPa Calm     95% 0 mm 0.00 W/m2 CLR
00:39 11.2 °C 10.4 °C 1015.8 hPa Calm     95% 0 mm 0.00 W/m2 CLR
00:44 11.2 °C 10.4 °C 1015.8 hPa Calm     95% 0 mm 0.00 W/m2 CLR
00:49 11.2 °C 10.4 °C 1016.1 hPa Calm     95% 0 mm 0.00 W/m2 CLR
00:54 11 °C 10.4 °C 1016.1 hPa Calm     96% 0 mm 0.00 W/m2 CLR
00:59 11 °C 10.4 °C 1016.1 hPa Calm     96% 0 mm 0.00 W/m2 CLR
01:04 10.8 °C 10.2 °C 1016.1 hPa Calm     96% 0 mm 0.00 W/m2 CLR
01:09 10.8 °C 10.2 °C 1016.1 hPa Calm     96% 0 mm 0.00 W/m2 CLR
01:14 10.7 °C 10.1 °C 1016.1 hPa Calm     96% 0 mm 0.00 W/m2 CLR
01:19 10.6 °C 10 °C 1016.1 hPa Calm     96% 0 mm 0.00 W/m2 CLR
01:24 10.6 °C 10 °C 1016.8 hPa Calm     96% 0 mm 0.00 W/m2 CLR
01:29 10.5 °C 9.9 °C 1016.8 hPa Calm     96% 0 mm 0.00 W/m2 CLR
01:34 10.4 °C 10.1 °C 1016.1 hPa Calm     98% 0 mm 0.00 W/m2 CLR
01:39 10.4 °C 10.1 °C 1016.1 hPa Calm     98% 0 mm 0.00 W/m2 CLR
01:44 10.4 °C 10.1 °C 1016.8 hPa Calm     98% 0 mm 0.00 W/m2 CLR
01:49 10.4 °C 10.1 °C 1016.8 hPa Calm     98% 0 mm 0.00 W/m2 CLR
01:54 10.3 °C 10 °C 1016.8 hPa Calm     98% 0 mm 0.00 W/m2 CLR
01:59 10.3 °C 10 °C 1016.8 hPa Calm     98% 0 mm 0.00 W/m2 CLR
02:04 10.3 °C 10 °C 1016.8 hPa Calm     98% 0 mm 0.00 W/m2 CLR
02:09 10.3 °C 10 °C 1016.8 hPa Calm     98% 0 mm 0.00 W/m2 CLR
02:14 10.2 °C 9.9 °C 1016.8 hPa Calm     98% 0 mm 0.00 W/m2 CLR
02:19 10.1 °C 9.8 °C 1017.2 hPa Calm     98% 0 mm 0.00 W/m2 CLR
02:24 10 °C 9.7 °C 1017.2 hPa Calm     98% 0 mm 0.00 W/m2 CLR
02:29 10 °C 9.7 °C 1017.2 hPa Calm     98% 0 mm 0.00 W/m2 CLR
02:34 9.9 °C 9.6 °C 1017.2 hPa Calm     98% 0 mm 0.00 W/m2 CLR
02:39 9.9 °C 9.6 °C 1016.8 hPa Calm     98% 0 mm 0.00 W/m2 CLR
02:44 9.9 °C 9.6 °C 1017.2 hPa Calm     98% 0 mm 0.00 W/m2 CLR
02:49 9.8 °C 9.5 °C 1017.2 hPa Calm     98% 0 mm 0.00 W/m2 CLR
02:54 9.8 °C 9.5 °C 1017.2 hPa Calm     98% 0 mm 0.00 W/m2 CLR
02:59 9.8 °C 9.5 °C 1017.2 hPa Calm     98% 0 mm 0.00 W/m2 CLR
03:04 9.9 °C 9.6 °C 1017.2 hPa Calm     98% 0 mm 0.00 W/m2 CLR
03:09 9.9 °C 9.6 °C 1017.5 hPa Calm     98% 0 mm 0.00 W/m2 CLR
03:14 9.9 °C 9.6 °C 1017.5 hPa Calm     98% 0 mm 0.00 W/m2 CLR
03:19 9.9 °C 9.6 °C 1017.5 hPa West 1.4 km/h 0.3 km/h 98% 0 mm 0.00 W/m2 CLR
03:24 10.2 °C 9.9 °C 1017.8 hPa West 3.7 km/h 0.6 km/h 98% 0 mm 0.00 W/m2 CLR
03:29 10.2 °C 9.9 °C 1017.8 hPa West 3.2 km/h 0.6 km/h 98% 0 mm 0.00 W/m2 CLR
03:34 10.3 °C 10 °C 1017.8 hPa SW 1.4 km/h 0.6 km/h 98% 0 mm 0.00 W/m2 CLR
03:39 10.4 °C 9.8 °C 1017.8 hPa Calm     96% 0 mm 0.00 W/m2 CLR
03:44 10.4 °C 9.8 °C 1017.8 hPa Calm     96% 0 mm 0.00 W/m2 CLR
03:49 10.3 °C 9.7 °C 1017.8 hPa Calm     96% 0 mm 0.00 W/m2 CLR
03:54 10.2 °C 9.6 °C 1017.8 hPa WSW 1.9 km/h 0.3 km/h 96% 0 mm 0.00 W/m2 CLR
03:59 10.2 °C 9.6 °C 1017.8 hPa WSW 3.2 km/h 0.3 km/h 96% 0 mm 0.00 W/m2 CLR
04:04 10.2 °C 9.6 °C 1018.2 hPa Calm     96% 0 mm 0.00 W/m2 CLR
04:09 10.2 °C 9.6 °C 1018.2 hPa Calm     96% 0 mm 0.00 W/m2 CLR
04:14 10.1 °C 9.8 °C 1018.2 hPa Calm     98% 0 mm 0.00 W/m2 CLR
04:19 10.1 °C 9.8 °C 1018.2 hPa Calm     98% 0 mm 0.00 W/m2 CLR
04:24 10.1 °C 9.8 °C 1018.2 hPa Calm     98% 0 mm 0.00 W/m2 CLR
04:29 10.1 °C 9.8 °C 1018.2 hPa Calm     98% 0 mm 0.00 W/m2 CLR
04:34 10.1 °C 9.8 °C 1018.5 hPa Calm     98% 0 mm 0.00 W/m2 CLR
04:39 10.1 °C 9.8 °C 1018.5 hPa Calm     98% 0 mm 0.00 W/m2 CLR
04:44 10 °C 9.7 °C 1018.5 hPa Calm     98% 0 mm 0.00 W/m2 CLR
04:49 10 °C 9.7 °C 1018.8 hPa Calm     98% 0 mm 0.00 W/m2 CLR
04:54 10 °C 9.7 °C 1018.5 hPa WSW 1.9 km/h   98% 0 mm 0.00 W/m2 CLR
04:59 10 °C 9.7 °C 1018.8 hPa Calm     98% 0 mm 101.70 W/m2 CLR
05:04 10 °C 9.7 °C 1018.8 hPa Calm   0.3 km/h 98% 0 mm 154.20 W/m2 CLR
05:09 10 °C 9.7 °C 1018.8 hPa Calm     98% 0 mm 167.30 W/m2 CLR
05:14 10 °C 9.7 °C 1018.8 hPa Calm     98% 0 mm 190.60 W/m2 CLR
05:19 10 °C 9.7 °C 1018.8 hPa WSW 1.9 km/h 0.3 km/h 98% 0 mm 198.70 W/m2 CLR
05:24 10 °C 9.7 °C 1018.8 hPa Calm     98% 0 mm 209.80 W/m2 CLR
05:29 10 °C 9.7 °C 1019.2 hPa Calm     98% 0 mm 218.90 W/m2 CLR
05:34 9.9 °C 9.6 °C 1019.2 hPa Calm     98% 0 mm 222.90 W/m2 CLR
05:39 9.9 °C 9.6 °C 1019.2 hPa Calm     98% 0 mm 222.90 W/m2 CLR
05:44 10 °C 9.7 °C 1019.5 hPa Calm     98% 0 mm 235.00 W/m2 CLR
05:49 9.8 °C 9.5 °C 1019.5 hPa Calm     98% 0 mm 236.00 W/m2 CLR
05:54 10.1 °C 9.8 °C 1019.5 hPa Calm   0.3 km/h 98% 0 mm 241.10 W/m2 CLR
05:59 10.1 °C 9.8 °C 1019.5 hPa Calm     98% 0 mm 243.10 W/m2 CLR
06:04 10.3 °C 9.7 °C 1019.5 hPa Calm     96% 0 mm 247.10 W/m2 CLR
06:09 10.6 °C 10 °C 1019.5 hPa WNW 3.7 km/h 0.6 km/h 96% 0 mm 250.20 W/m2 CLR
06:14 10.7 °C 10.1 °C 1019.9 hPa WSW 3.7 km/h 0.6 km/h 96% 0 mm 253.20 W/m2 CLR
06:19 11 °C 10.2 °C 1019.5 hPa Calm   0.3 km/h 95% 0 mm 256.20 W/m2 CLR
06:24 11.3 °C 10.2 °C 1019.5 hPa West 1.4 km/h 0.3 km/h 93% 0 mm 257.20 W/m2 CLR
06:29 11.8 °C 10.4 °C 1019.5 hPa West 3.7 km/h 2.1 km/h 91% 0 mm 258.30 W/m2 CLR
06:34 12.1 °C 10.5 °C 1019.5 hPa SW 1.9 km/h 1.1 km/h 90% 0 mm 260.30 W/m2 CLR
06:39 12.3 °C 10.4 °C 1019.9 hPa Calm   0.3 km/h 88% 0 mm 262.30 W/m2 CLR
06:44 12.3 °C 10.7 °C 1019.9 hPa Calm   0.3 km/h 90% 0 mm 263.30 W/m2 CLR
06:49 12.6 °C 11 °C 1019.9 hPa Calm     90% 0 mm 264.30 W/m2 CLR
06:54 13.1 °C 11.2 °C 1019.9 hPa Calm     88% 0 mm 266.30 W/m2 CLR
06:59 13.1 °C 11.2 °C 1019.5 hPa Calm     88% 0 mm 266.30 W/m2 CLR
07:04 13.2 °C 11.3 °C 1019.5 hPa Calm     88% 0 mm 269.40 W/m2 CLR
07:09 13.5 °C 11.6 °C 1019.5 hPa Calm     88% 0 mm 271.40 W/m2 CLR
07:14 14.7 °C 11.8 °C 1019.5 hPa Calm     83% 0 mm 272.40 W/m2 CLR
07:19 14.7 °C 11.8 °C 1019.2 hPa Calm     83% 0 mm 273.40 W/m2 CLR
07:24 15.5 °C 12.1 °C 1019.2 hPa Calm     80% 0 mm 274.40 W/m2 CLR
07:29 16.1 °C 12.4 °C 1019.2 hPa Calm     79% 0 mm 275.40 W/m2 CLR
07:34 16.8 °C 12.3 °C 1019.2 hPa Calm     75% 0 mm 277.40 W/m2 CLR
07:39 18 °C 12.4 °C 1019.2 hPa Calm     70% 0 mm 280.50 W/m2 CLR
07:44 18.8 °C 12.3 °C 1018.8 hPa Calm     66% 0 mm 280.50 W/m2 CLR
07:49 19.6 °C 12.8 °C 1019.2 hPa SSE 1.4 km/h 0.3 km/h 65% 0 mm 283.50 W/m2 CLR
07:54 19.8 °C 12.6 °C 1019.2 hPa Calm   0.6 km/h 63% 0 mm 287.50 W/m2 CLR
07:59 19.9 °C 12.7 °C 1019.2 hPa SE 1.9 km/h 0.6 km/h 63% 0 mm 90.00 W/m2 CLR
08:04 20.2 °C 12.4 °C 1019.2 hPa Calm     61% 0 mm 107.00 W/m2 CLR
08:09 20.6 °C 12.1 °C 1019.2 hPa West 1.9 km/h 0.3 km/h 58% 0 mm 297.60 W/m2 CLR
08:14 21.1 °C 12.5 °C 1019.2 hPa West 1.9 km/h 0.3 km/h 58% 0 mm 377.40 W/m2 CLR
08:19 21 °C 11.9 °C 1019.2 hPa Calm   0.3 km/h 56% 0 mm 394.60 W/m2 CLR
08:24 20.7 °C 11.3 °C 1019.5 hPa NE 5.6 km/h 2.6 km/h 55% 0 mm 180.00 W/m2 CLR
08:29 21.4 °C 12 °C 1019.2 hPa Calm     55% 0 mm 199.00 W/m2 CLR
08:34 21.1 °C 12 °C 1019.5 hPa WNW 1.9 km/h 0.6 km/h 56% 0 mm 775.40 W/m2 CLR
08:39 21.9 °C 12.2 °C 1019.5 hPa ESE 5.6 km/h 1.4 km/h 54% 0 mm 802.60 W/m2 CLR
08:44 21.9 °C 12.2 °C 1019.5 hPa East 3.7 km/h 1.4 km/h 54% 0 mm 802.60 W/m2 CLR
08:49 22.1 °C 12.6 °C 1019.9 hPa Calm     55% 0 mm 821.80 W/m2 CLR
08:54 22.3 °C 12.8 °C 1019.9 hPa NE 1.9 km/h 0.3 km/h 55% 0 mm 832.90 W/m2 CLR
08:59 22.8 °C 12.1 °C 1019.5 hPa Calm   0.3 km/h 51% 0 mm 832.90 W/m2 CLR
09:04 22.8 °C 11.5 °C 1019.9 hPa South 5.6 km/h 1.4 km/h 49% 0 mm 838.00 W/m2 CLR
09:09 23.3 °C 12.3 °C 1019.9 hPa NNE 3.7 km/h 0.6 km/h 50% 0 mm 841.00 W/m2 CLR
09:14 23.9 °C 11.6 °C 1019.9 hPa SSE 5.6 km/h 1.8 km/h 46% 0 mm 854.20 W/m2 CLR
09:19 23.9 °C 11.2 °C 1019.5 hPa East 3.7 km/h 2.9 km/h 45% 0 mm 858.20 W/m2 CLR
09:24 24.1 °C 11.8 °C 1019.9 hPa ESE 3.7 km/h 1.4 km/h 46% 0 mm 858.20 W/m2 CLR
09:29 24.2 °C 11.5 °C 1019.9 hPa ESE 5.6 km/h 3.5 km/h 45% 0 mm 862.20 W/m2 CLR
09:34 24.1 °C 11.1 °C 1019.5 hPa SE 3.2 km/h 2.9 km/h 44% 0 mm 862.20 W/m2 CLR
09:39 24.2 °C 11.8 °C 1019.5 hPa East 5.6 km/h 2.9 km/h 46% 0 mm 865.30 W/m2 CLR
09:44 23.8 °C 12.1 °C 1019.5 hPa West 3.7 km/h 2.1 km/h 48% 0 mm 868.30 W/m2 CLR
09:49 23.5 °C 12.2 °C 1019.5 hPa ESE 3.7 km/h 1.8 km/h 49% 0 mm 858.20 W/m2 CLR
09:54 24.4 °C 12 °C 1019.5 hPa East 1.9 km/h 0.3 km/h 46% 0 mm 847.10 W/m2 CLR
09:59 24.4 °C 12 °C 1019.5 hPa Calm   1.1 km/h 46% 0 mm 593.00 W/m2 CLR
10:04 24.7 °C 11.9 °C 1019.5 hPa Calm   1.8 km/h 45% 0 mm 867.30 W/m2 CLR
10:09 24.9 °C 11.8 °C 1019.9 hPa SE 5.6 km/h 3.2 km/h 44% 0 mm 867.30 W/m2 CLR
10:14 24.2 °C 12.5 °C 1019.9 hPa SSW 1.9 km/h 1.1 km/h 48% 0 mm 873.30 W/m2 CLR
10:19 24.2 °C 12.8 °C 1019.9 hPa Calm     49% 0 mm 842.00 W/m2 CLR
10:24 24.6 °C 12.2 °C 1019.5 hPa Calm     46% 0 mm 857.20 W/m2 CLR
10:29 24.7 °C 13.3 °C 1019.5 hPa Calm     49% 0 mm 858.20 W/m2 CLR
10:34 24.2 °C 11.8 °C 1019.9 hPa Calm   0.6 km/h 46% 0 mm 752.00 W/m2 CLR
10:39 23.6 °C 11.9 °C 1020.2 hPa ESE 3.7 km/h 0.6 km/h 48% 0 mm 622.90 W/m2 CLR
10:44 23.5 °C 12.5 °C 1020.2 hPa Calm   0.3 km/h 50% 0 mm 443.10 W/m2 CLR
10:49 23.3 °C 12.6 °C 1020.2 hPa Calm     51% 0 mm 448.10 W/m2 CLR
10:54 23.1 °C 13.6 °C 1020.2 hPa Calm     55% 0 mm 415.80 W/m2 CLR
10:59 23.2 °C 13.4 °C 1020.2 hPa Calm     54% 0 mm 414.80 W/m2 CLR
11:04 23.2 °C 13.4 °C 1020.5 hPa West 1.9 km/h 1.4 km/h 54% 0 mm 411.80 W/m2 CLR
11:09 22.8 °C 13.3 °C 1020.2 hPa Calm   0.3 km/h 55% 0 mm 411.80 W/m2 CLR
11:14 23.2 °C 13.4 °C 1020.5 hPa SSE 1.9 km/h 1.1 km/h 54% 0 mm 624.90 W/m2 CLR
11:19 23 °C 13.4 °C 1020.5 hPa ESE 1.9 km/h 0.6 km/h 55% 0 mm 624.90 W/m2 CLR
11:24 22.7 °C 13.2 °C 1020.5 hPa Calm   0.3 km/h 55% 0 mm 624.90 W/m2 CLR
11:29 22.7 °C 13.2 °C 1020.5 hPa Calm     55% 0 mm 974.00 W/m2 CLR
11:34 22.8 °C 13.6 °C 1020.5 hPa Calm     56% 0 mm 991.00 W/m2 CLR
11:39 22.8 °C 14.1 °C 1020.5 hPa Calm     58% 0 mm 514.80 W/m2 CLR
11:44 22.8 °C 14.1 °C 1020.5 hPa WSW 1.9 km/h 0.3 km/h 58% 0 mm 1025.00 W/m2 CLR
11:49 23.3 °C 13.4 °C 1020.2 hPa ESE 3.7 km/h 0.6 km/h 54% 0 mm 825.90 W/m2 CLR
11:54 23.9 °C 13.2 °C 1019.9 hPa NNE 5.6 km/h 2.9 km/h 51% 0 mm 851.10 W/m2 CLR
11:59 24.2 °C 13.1 °C 1019.9 hPa South 5.6 km/h 3.5 km/h 50% 0 mm 868.30 W/m2 CLR
12:04 24.4 °C 12.7 °C 1019.9 hPa East 1.9 km/h 4.3 km/h 48% 0 mm 877.40 W/m2 CLR
12:09 25.3 °C 12.5 °C 1019.5 hPa NNE 5.6 km/h 2.9 km/h 45% 0 mm 890.50 W/m2 CLR
12:14 25.6 °C 12.8 °C 1019.9 hPa East 3.7 km/h 3.5 km/h 45% 0 mm 892.50 W/m2 CLR
12:19 25.3 °C 12.8 °C 1019.9 hPa SSW 7.4 km/h 2.1 km/h 46% 0 mm 889.50 W/m2 CLR
12:24 25.8 °C 12.6 °C 1019.9 hPa ESE 5.6 km/h 4.3 km/h 44% 0 mm 891.50 W/m2 CLR
12:29 25.7 °C 12.6 °C 1019.9 hPa ESE 5.6 km/h 4 km/h 44% 0 mm 878.40 W/m2 CLR
12:34 26.7 °C 13.1 °C 1019.9 hPa North 3.7 km/h 2.1 km/h 43% 0 mm 891.50 W/m2 CLR
12:39 26.7 °C 12 °C 1019.9 hPa SSE 5.6 km/h 4 km/h 40% 0 mm 896.60 W/m2 CLR
12:44 26.8 °C 12.1 °C 1019.9 hPa NE 5.6 km/h 4.7 km/h 40% 0 mm 897.60 W/m2 CLR
12:49 27.1 °C 12.3 °C 1019.9 hPa West 3.7 km/h 2.1 km/h 40% 0 mm 896.60 W/m2 CLR
12:54 27.4 °C 12.6 °C 1019.5 hPa North 1.9 km/h 2.1 km/h 40% 0 mm 898.60 W/m2 CLR
12:59 27.2 °C 12.4 °C 1019.5 hPa WNW 3.7 km/h 2.6 km/h 40% 0 mm 896.60 W/m2 CLR
13:04 27.2 °C 12.4 °C 1019.9 hPa Calm   2.6 km/h 40% 0 mm 896.60 W/m2 CLR
13:09 27.2 °C 12.4 °C 1019.5 hPa West 3.7 km/h 1.8 km/h 40% 0 mm 1197.00 W/m2 CLR
13:14 26.8 °C 12.1 °C 1019.5 hPa South 3.7 km/h 2.9 km/h 40% 0 mm 895.60 W/m2 CLR
13:19 27.1 °C 12.3 °C 1019.5 hPa NNE 3.7 km/h 3.2 km/h 40% 0 mm 895.60 W/m2 CLR
13:24 27.7 °C 12.5 °C 1019.5 hPa ENE 6.4 km/h 3.2 km/h 39% 0 mm 896.60 W/m2 CLR
13:29 27.7 °C 12.5 °C 1019.5 hPa ESE 1.9 km/h 5.5 km/h 39% 0 mm 894.60 W/m2 CLR
13:34 27.7 °C 12.5 °C 1019.2 hPa SSW 5.6 km/h 4.3 km/h 39% 0 mm 894.60 W/m2 CLR
13:39 27.7 °C 12.5 °C 1019.5 hPa Calm   1.1 km/h 39% 0 mm 898.60 W/m2 CLR
13:44 27.4 °C 11.4 °C 1019.2 hPa West 5.6 km/h 3.5 km/h 37% 0 mm 898.60 W/m2 CLR
13:49 27.4 °C 12.6 °C 1019.2 hPa ENE 3.7 km/h 3.2 km/h 40% 0 mm 894.60 W/m2 CLR
13:54 27.2 °C 12.8 °C 1019.2 hPa NNE 5.6 km/h 4 km/h 41% 0 mm 875.40 W/m2 CLR
13:59 27.6 °C 11.6 °C 1019.2 hPa ESE 4.7 km/h 2.9 km/h 37% 0 mm 886.50 W/m2 CLR
14:04 27.6 °C 11.6 °C 1019.2 hPa ESE 5.6 km/h 2.9 km/h 37% 0 mm 892.50 W/m2 CLR
14:09 27.7 °C 10.8 °C 1018.8 hPa SSE 3.2 km/h 2.6 km/h 35% 0 mm 897.60 W/m2 CLR
14:14 27.9 °C 11.9 °C 1018.8 hPa SSW 3.7 km/h 3.2 km/h 37% 0 mm 895.60 W/m2 CLR
14:19 27.7 °C 11.7 °C 1018.8 hPa SSW 1.9 km/h 1.8 km/h 37% 0 mm 894.60 W/m2 CLR
14:24 27.9 °C 11 °C 1018.8 hPa SW 7.4 km/h 2.9 km/h 35% 0 mm 893.50 W/m2 CLR
14:29 27.7 °C 10.8 °C 1018.8 hPa SSE 3.2 km/h 2.1 km/h 35% 0 mm 892.50 W/m2 CLR
14:34 27.7 °C 10.8 °C 1018.8 hPa East 5.6 km/h 3.5 km/h 35% 0 mm 889.50 W/m2 CLR
14:39 27.6 °C 10.8 °C 1018.8 hPa SE 6.4 km/h 5 km/h 35% 0 mm 890.50 W/m2 CLR
14:44 27.8 °C 11.8 °C 1018.5 hPa ESE 7.4 km/h 5 km/h 37% 0 mm 891.50 W/m2 CLR
14:49 27.6 °C 10.8 °C 1018.5 hPa South 5.6 km/h 4.3 km/h 35% 0 mm 893.50 W/m2 CLR
14:54 28.3 °C 11.4 °C 1018.5 hPa SW 3.7 km/h 2.9 km/h 35% 0 mm 893.50 W/m2 CLR
14:59 28.2 °C 11.3 °C 1018.2 hPa WNW 5.6 km/h 4.7 km/h 35% 0 mm 894.60 W/m2 CLR
15:04 28.1 °C 11.2 °C 1018.2 hPa WNW 1.9 km/h 3.5 km/h 35% 0 mm 894.60 W/m2 CLR
15:09 28.1 °C 11.2 °C 1018.2 hPa WNW 7.9 km/h 6.4 km/h 35% 0 mm 895.60 W/m2 CLR
15:14 28.2 °C 11.3 °C 1018.2 hPa ESE 5.6 km/h 4.3 km/h 35% 0 mm 0.00 W/m2 CLR
15:19 28.1 °C 11.2 °C 1018.2 hPa ESE 6.4 km/h 3.5 km/h 35% 0 mm 894.60 W/m2 CLR
15:24 27.8 °C 10.9 °C 1018.2 hPa NW 4.7 km/h 1.4 km/h 35% 0 mm 890.50 W/m2 CLR
15:29 28.3 °C 11.4 °C 1017.8 hPa SSE 5.6 km/h 2.1 km/h 35% 0 mm 894.60 W/m2 CLR
15:34 28.2 °C 11.3 °C 1017.8 hPa ENE 5.6 km/h 2.1 km/h 35% 0 mm 894.60 W/m2 CLR
15:39 28.6 °C 11.6 °C 1017.8 hPa South 6.4 km/h 2.9 km/h 35% 0 mm 890.50 W/m2 CLR
15:44 28.1 °C 11.2 °C 1017.8 hPa NE 5.6 km/h 4.3 km/h 35% 0 mm 887.50 W/m2 CLR
15:49 28.2 °C 11.3 °C 1017.8 hPa NE 7.9 km/h 4.3 km/h 35% 0 mm 887.50 W/m2 CLR
15:54 28.2 °C 11.3 °C 1017.8 hPa ESE 7.4 km/h 4.3 km/h 35% 0 mm 887.50 W/m2 CLR
15:59 27.9 °C 11 °C 1017.8 hPa East 6.4 km/h 3.5 km/h 35% 0 mm 890.50 W/m2 CLR
16:04 27.8 °C 10.9 °C 1017.8 hPa NW 4.7 km/h 3.2 km/h 35% 0 mm 890.50 W/m2 CLR
16:09 28.1 °C 11.2 °C 1017.8 hPa East 7.9 km/h 6.4 km/h 35% 0 mm 887.50 W/m2 CLR
16:14 27.4 °C 11.4 °C 1017.8 hPa ESE 7.4 km/h 4.7 km/h 37% 0 mm 890.50 W/m2 CLR
16:19 27.7 °C 11.7 °C 1017.8 hPa West 11.1 km/h 6.4 km/h 37% 0 mm 887.50 W/m2 CLR
16:24 27.6 °C 11.6 °C 1017.8 hPa NNE 5.6 km/h 5 km/h 37% 0 mm 886.50 W/m2 CLR
16:29 27.7 °C 11.7 °C 1017.8 hPa ENE 5.6 km/h 3.5 km/h 37% 0 mm 885.50 W/m2 CLR
16:34 27.7 °C 11.7 °C 1017.5 hPa SE 5.6 km/h 3.5 km/h 37% 0 mm 884.40 W/m2 CLR
16:39 27.7 °C 11.7 °C 1017.2 hPa SW 5.6 km/h 4.3 km/h 37% 0 mm 881.40 W/m2 CLR
16:44 27.9 °C 11.9 °C 1017.2 hPa NNE 5.6 km/h 3.5 km/h 37% 0 mm 881.40 W/m2 CLR
16:49 27.9 °C 11.9 °C 1016.8 hPa SE 14.3 km/h 4 km/h 37% 0 mm 879.40 W/m2 CLR
16:54 27.8 °C 11.8 °C 1016.8 hPa ENE 4.7 km/h 3.2 km/h 37% 0 mm 879.40 W/m2 CLR
16:59 27.9 °C 11 °C 1016.8 hPa WSW 11.1 km/h 5.5 km/h 35% 0 mm 874.30 W/m2 CLR
17:04 27.9 °C 11 °C 1017.2 hPa North 3.7 km/h 5.8 km/h 35% 0 mm 869.30 W/m2 CLR
17:09 27.4 °C 11.4 °C 1016.8 hPa West 3.7 km/h 2.9 km/h 37% 0 mm 866.30 W/m2 CLR
17:14 27.6 °C 11.6 °C 1016.8 hPa NE 5.6 km/h 4 km/h 37% 0 mm 866.30 W/m2 CLR
17:19 27.4 °C 10.6 °C 1016.8 hPa ENE 7.4 km/h 5 km/h 35% 0 mm 859.20 W/m2 CLR
17:24 27.6 °C 11.6 °C 1016.8 hPa North 3.2 km/h 2.1 km/h 37% 0 mm 855.20 W/m2 CLR
17:29 27.4 °C 10.6 °C 1016.5 hPa West 9.3 km/h 4.7 km/h 35% 0 mm 855.20 W/m2 CLR
17:34 27.4 °C 11.4 °C 1016.5 hPa ESE 9.7 km/h 4.7 km/h 37% 0 mm 850.10 W/m2 CLR
17:39 27.2 °C 10.4 °C 1016.5 hPa ENE 4.7 km/h 2.9 km/h 35% 0 mm 846.10 W/m2 CLR
17:44 27.2 °C 10.4 °C 1016.5 hPa East 6.4 km/h 3.2 km/h 35% 0 mm 836.00 W/m2 CLR
17:49 27.2 °C 10.4 °C 1016.5 hPa NNW 5.6 km/h 3.2 km/h 35% 0 mm 831.90 W/m2 CLR
17:54 26.7 °C 9.9 °C 1016.5 hPa ENE 11.1 km/h 5.8 km/h 35% 0 mm 829.90 W/m2 CLR
17:59 26.3 °C 10.4 °C 1015.8 hPa North 5.6 km/h 4.7 km/h 37% 0 mm 811.70 W/m2 CLR
18:04 26.3 °C 10.4 °C 1016.5 hPa Calm   4.3 km/h 37% 0 mm 722.80 W/m2 CLR
18:09 26.1 °C 10.3 °C 1016.5 hPa West 9.3 km/h 5 km/h 37% 0 mm 563.30 W/m2 CLR
18:14 26 °C 10.2 °C 1016.5 hPa SE 5.6 km/h 4.3 km/h 37% 0 mm 563.30 W/m2 CLR
18:19 25.8 °C 10.8 °C 1015.8 hPa NW 5.6 km/h 2.1 km/h 39% 0 mm 511.80 W/m2 CLR
18:24 25.7 °C 11.1 °C 1015.8 hPa ESE 5.6 km/h 2.9 km/h 40% 0 mm 454.20 W/m2 CLR
18:29 25.7 °C 10.7 °C 1015.8 hPa WNW 5.6 km/h 2.9 km/h 39% 0 mm 456.20 W/m2 CLR
18:34 25.3 °C 10.7 °C 1016.5 hPa ENE 7.4 km/h 4 km/h 40% 0 mm 435.00 W/m2 CLR
18:39 24.9 °C 10.4 °C 1016.5 hPa NNW 5.6 km/h 2.6 km/h 40% 0 mm 408.70 W/m2 CLR
18:44 24.6 °C 10.4 °C 1016.5 hPa NNW 4.7 km/h 1.4 km/h 41% 0 mm 371.40 W/m2 CLR
18:49 24.7 °C 10.2 °C 1016.1 hPa WNW 7.4 km/h 4 km/h 40% 0 mm 375.40 W/m2 CLR
18:54 24.7 °C 10.2 °C 1015.8 hPa ESE 6.4 km/h 2.9 km/h 40% 0 mm 392.60 W/m2 CLR
18:59 24.4 °C 10.3 °C 1016.1 hPa SE 3.7 km/h 2.6 km/h 41% 0 mm 379.40 W/m2 CLR
19:04 24.4 °C 10.3 °C 1016.1 hPa South 5.6 km/h 3.5 km/h 41% 0 mm 349.20 W/m2 CLR
19:09 24.2 °C 10.1 °C 1016.1 hPa NW 3.7 km/h 1.1 km/h 41% 0 mm 349.20 W/m2 CLR
19:14 24.2 °C 11.2 °C 1015.8 hPa North 3.2 km/h 1.1 km/h 44% 0 mm 343.10 W/m2 CLR
19:19 24.7 °C 10.6 °C 1015.8 hPa North 3.2 km/h 1.8 km/h 41% 0 mm 327.90 W/m2 CLR
19:24 24.7 °C 10.6 °C 1015.8 hPa NNE 1.9 km/h 1.8 km/h 41% 0 mm 327.90 W/m2 CLR
19:29 24.1 °C 10 °C 1015.8 hPa ESE 4.7 km/h 3.2 km/h 41% 0 mm 327.90 W/m2 CLR
19:34 23.5 °C 10.6 °C 1015.8 hPa ESE 5.6 km/h 2.6 km/h 44% 0 mm 319.90 W/m2 CLR
19:39 23.2 °C 10.6 °C 1015.8 hPa NNE 5.6 km/h 1.4 km/h 45% 0 mm 320.90 W/m2 CLR
19:44 23.3 °C 10.7 °C 1016.1 hPa North 5.6 km/h 1.1 km/h 45% 0 mm 320.90 W/m2 CLR
19:49 23.3 °C 10.3 °C 1015.8 hPa NW 5.6 km/h 2.6 km/h 44% 0 mm 317.80 W/m2 CLR
19:54 23.2 °C 10.3 °C 1016.1 hPa South 3.2 km/h 1.8 km/h 44% 0 mm 314.80 W/m2 CLR
19:59 22.8 °C 9.9 °C 1015.8 hPa West 1.4 km/h 0.6 km/h 44% 0 mm 309.80 W/m2 CLR
20:04 22.8 °C 10.2 °C 1016.1 hPa Calm   0.3 km/h 45% 0 mm 299.70 W/m2 CLR
20:09 22.4 °C 9.9 °C 1016.1 hPa Calm     45% 0 mm 299.70 W/m2 CLR
20:14 22.2 °C 9.7 °C 1016.1 hPa Calm     45% 0 mm 296.60 W/m2 CLR
20:19 21.7 °C 10.2 °C 1016.1 hPa Calm     48% 0 mm 282.50 W/m2 CLR
20:24 21.4 °C 10.6 °C 1016.1 hPa Calm     50% 0 mm 273.40 W/m2 CLR
20:29 21.1 °C 10.3 °C 1016.1 hPa Calm     50% 0 mm 261.30 W/m2 CLR
20:34 21 °C 10.2 °C 1016.1 hPa Calm     50% 0 mm 255.20 W/m2 CLR
20:39 20.6 °C 10.1 °C 1016.1 hPa Calm     51% 0 mm 240.10 W/m2 CLR
20:44 20.2 °C 10.9 °C 1016.1 hPa Calm     55% 0 mm 240.10 W/m2 CLR
20:49 19.8 °C 10.2 °C 1016.5 hPa Calm     54% 0 mm 208.80 W/m2 CLR
20:54 19.5 °C 10.2 °C 1016.5 hPa Calm     55% 0 mm 180.50 W/m2 CLR
20:59 19.1 °C 10.1 °C 1016.5 hPa Calm     56% 0 mm 155.20 W/m2 CLR
21:04 18.8 °C 10.3 °C 1017.2 hPa Calm     58% 0 mm 0.00 W/m2 CLR
21:09 18.3 °C 10.4 °C 1017.2 hPa Calm     60% 0 mm 0.00 W/m2 CLR
21:14 18.3 °C 10.4 °C 1017.2 hPa Calm     60% 0 mm 0.00 W/m2 CLR
21:19 17.6 °C 10.4 °C 1017.2 hPa Calm     63% 0 mm 0.00 W/m2 CLR
21:24 17.3 °C 10.7 °C 1017.2 hPa Calm     65% 0 mm 0.00 W/m2 CLR
21:29 17.2 °C 10.8 °C 1017.2 hPa Calm     66% 0 mm 0.00 W/m2 CLR
21:34 16.7 °C 10.3 °C 1017.2 hPa Calm     66% 0 mm 0.00 W/m2 CLR
21:39 16.5 °C 11 °C 1017.5 hPa Calm     70% 0 mm 0.00 W/m2 CLR
21:44 16.4 °C 10.7 °C 1017.2 hPa Calm     69% 0 mm 0.00 W/m2 CLR
21:49 15.9 °C 10.4 °C 1017.2 hPa Calm     70% 0 mm 0.00 W/m2 CLR
21:54 15.7 °C 10.4 °C 1017.8 hPa Calm     71% 0 mm 0.00 W/m2 CLR
21:59 15.6 °C 10.2 °C 1017.8 hPa Calm     70% 0 mm 0.00 W/m2 CLR
22:04 15.4 °C 10.6 °C 1017.8 hPa Calm     73% 0 mm 0.00 W/m2 CLR
22:09 15.2 °C 10.4 °C 1017.8 hPa Calm     73% 0 mm 0.00 W/m2 CLR
22:14 15 °C 10.4 °C 1017.8 hPa Calm     74% 0 mm 0.00 W/m2 CLR
22:19 14.7 °C 10.3 °C 1017.8 hPa Calm     75% 0 mm 0.00 W/m2 CLR
22:24 14.6 °C 10.2 °C 1017.8 hPa Calm     75% 0 mm 0.00 W/m2 CLR
22:29 14.3 °C 9.9 °C 1018.2 hPa Calm     75% 0 mm 0.00 W/m2 CLR
22:34 14.2 °C 9.8 °C 1018.2 hPa Calm     75% 0 mm 0.00 W/m2 CLR
22:39 14 °C 9.8 °C 1017.8 hPa Calm     76% 0 mm 0.00 W/m2 CLR
22:44 13.8 °C 10.1 °C 1018.2 hPa Calm     78% 0 mm 0.00 W/m2 CLR
22:49 13.7 °C 10.1 °C 1017.8 hPa Calm     79% 0 mm 0.00 W/m2 CLR
22:54 13.3 °C 10.1 °C 1017.8 hPa Calm     81% 0 mm 0.00 W/m2 CLR
22:59 13.3 °C 10.1 °C 1017.8 hPa Calm     81% 0 mm 0.00 W/m2 CLR
23:04 13.3 °C 10.1 °C 1017.8 hPa Calm     81% 0 mm 0.00 W/m2 CLR
23:09 13.1 °C 9.9 °C 1017.8 hPa Calm     81% 0 mm 0.00 W/m2 CLR
23:14 12.8 °C 10 °C 1017.8 hPa Calm     83% 0 mm 0.00 W/m2 CLR
23:19 12.8 °C 10 °C 1017.8 hPa Calm     83% 0 mm 0.00 W/m2 CLR
23:24 12.6 °C 10.2 °C 1017.8 hPa Calm     85% 0 mm 0.00 W/m2 CLR
23:29 12.6 °C 10.2 °C 1017.8 hPa Calm     85% 0 mm 0.00 W/m2 CLR
23:34 12.4 °C 10.1 °C 1017.8 hPa Calm     86% 0 mm 0.00 W/m2 CLR
23:39 12.4 °C 9.9 °C 1017.8 hPa Calm     85% 0 mm 0.00 W/m2 CLR
23:44 12.3 °C 10 °C 1017.8 hPa Calm     86% 0 mm 0.00 W/m2 CLR
23:49 12.3 °C 10 °C 1017.8 hPa Calm     86% 0 mm 0.00 W/m2 CLR
23:54 12.2 °C 10.3 °C 1017.8 hPa Calm     88% 0 mm 0.00 W/m2 CLR
23:59 12.2 °C 10.3 °C 1017.8 hPa Calm     88% 0 mm 0.00 W/m2 CLR
Juneau County Weather
Compliments of Weather Underground - 5.75 mb